Terminal Aerodrome Forecast
Issued by NWS

Home | Current Version | Previous Version | Text Only | Print | Product List | Glossary On
Versions: 1 2 3 4 5 6 7 8 9 10 11 12 13 14 15 16 17 18 19 20 21 22 23 24 25 26 27 28 29 30 31 32
000
FTUS41 KBOX 192322
TAFBED
TAF
KBED 192322Z 2000/2024 11008KT P6SM FEW250
     FM200200 VRB03KT P6SM SCT250
     FM201400 10010G18KT P6SM OVC020
     FM201600 10010G20KT 3SM -RA OVC010
     FM201800 09011G25KT 2SM -RA BR OVC008
     FM202200 11012G22KT 3SM -SHRA BR OVC010=

USA.gov is the U.S. government's official web portal to all federal, state and local government web resources and services.